Time;durP1;ratioP1;P1;durP2;ratioP2;P2;SDS_P1;SDS_P2;PMS_P1;PMS_P2;Temp;Humidity;BMP_temperature;BMP_pressure;BME280_temperature;BME280_humidity;BME280_pressure;Samples;Min_cycle;Max_cycle;Signal;HPM_P1;HPM_P2
2022/11/06 00:00:03;;;;;;;7.35;2.92;;;;;;;;;;5009794;28;20014;-70
2022/11/06 00:02:29;;;;;;;16.83;5.13;;;;;;;;;;5005650;28;20504;-66
2022/11/06 00:06:46;;;;;;;10.48;3.47;;;;;;;;;;5008317;28;20089;-66
2022/11/06 00:07:39;;;;;;;11.15;4.13;;;;;;;;;;5007969;28;20040;-69
2022/11/06 00:10:04;;;;;;;4.70;2.87;;;;;;;;;;5005174;28;20022;-66
2022/11/06 00:12:29;;;;;;;21.60;4.95;;;;;;;;;;5002475;28;20762;-67
2022/11/06 00:14:54;;;;;;;6.73;3.17;;;;;;;;;;5005973;28;20017;-66
2022/11/06 00:17:20;;;;;;;6.53;2.47;;;;;;;;;;5006489;28;20785;-66
2022/11/06 00:19:45;;;;;;;8.93;2.83;;;;;;;;;;5004441;28;20265;-66
2022/11/06 00:22:10;;;;;;;6.40;3.63;;;;;;;;;;5005233;28;20276;-66
2022/11/06 00:24:35;;;;;;;6.80;4.13;;;;;;;;;;5007051;28;20359;-71
2022/11/06 00:27:01;;;;;;;4.17;2.67;;;;;;;;;;5009854;28;20014;-68
2022/11/06 00:29:26;;;;;;;17.57;3.90;;;;;;;;;;5007391;28;20356;-67
2022/11/06 00:31:51;;;;;;;6.43;2.60;;;;;;;;;;5004474;28;20299;-70
2022/11/06 00:34:16;;;;;;;7.28;2.92;;;;;;;;;;5008203;28;20362;-67
2022/11/06 00:36:42;;;;;;;5.60;2.28;;;;;;;;;;4997874;28;20053;-67
2022/11/06 00:39:08;;;;;;;3.67;2.28;;;;;;;;;;5006081;28;20057;-66
2022/11/06 00:41:33;;;;;;;7.75;2.28;;;;;;;;;;4997973;28;20024;-69
2022/11/06 00:43:59;;;;;;;5.07;2.97;;;;;;;;;;5004928;28;20030;-67
2022/11/06 00:46:25;;;;;;;7.97;2.60;;;;;;;;;;5001847;28;20022;-67
2022/11/06 00:48:51;;;;;;;12.70;3.67;;;;;;;;;;5004914;28;20021;-69
2022/11/06 00:51:17;;;;;;;18.88;4.25;;;;;;;;;;5004890;28;20030;-68
2022/11/06 00:53:43;;;;;;;12.82;4.35;;;;;;;;;;5003430;28;20040;-70
2022/11/06 00:56:09;;;;;;;9.93;3.72;;;;;;;;;;5004936;28;20026;-69
2022/11/06 00:58:35;;;;;;;4.68;2.03;;;;;;;;;;5005242;28;20033;-70
2022/11/06 01:01:06;;;;;;;7.35;2.97;;;;;;;;;;5007560;28;20512;-66
2022/11/06 01:03:31;;;;;;;7.68;2.78;;;;;;;;;;5006462;28;20014;-66
2022/11/06 01:06:02;;;;;;;11.82;2.97;;;;;;;;;;5005638;28;20580;-66
2022/11/06 01:08:28;;;;;;;15.88;3.63;;;;;;;;;;5007335;28;20026;-73
2022/11/06 01:10:53;;;;;;;5.47;2.92;;;;;;;;;;5005163;28;20018;-66
2022/11/06 01:13:18;;;;;;;9.15;1.90;;;;;;;;;;5000590;28;20030;-65
2022/11/06 01:15:43;;;;;;;5.97;2.73;;;;;;;;;;5006887;28;20030;-69
2022/11/06 01:18:08;;;;;;;11.57;3.58;;;;;;;;;;5007660;28;20293;-65
2022/11/06 01:20:35;;;;;;;4.50;2.60;;;;;;;;;;5002658;28;20371;-68
2022/11/06 01:23:01;;;;;;;7.47;2.33;;;;;;;;;;5004115;28;20284;-65
2022/11/06 01:25:26;;;;;;;5.60;2.72;;;;;;;;;;5001422;28;20033;-66
2022/11/06 01:27:51;;;;;;;4.50;1.87;;;;;;;;;;5005330;28;20029;-65
2022/11/06 01:30:17;;;;;;;16.43;3.27;;;;;;;;;;5002524;28;20293;-66
2022/11/06 01:32:42;;;;;;;6.57;1.63;;;;;;;;;;5008269;28;20291;-68
2022/11/06 01:35:07;;;;;;;9.17;2.33;;;;;;;;;;5008029;28;20025;-67
2022/11/06 01:37:32;;;;;;;9.40;2.75;;;;;;;;;;5005413;28;20855;-67
2022/11/06 01:39:58;;;;;;;4.78;1.77;;;;;;;;;;5001851;28;20021;-66
2022/11/06 01:42:23;;;;;;;6.53;2.57;;;;;;;;;;5007375;28;20042;-66
2022/11/06 01:45:03;;;;;;;2.30;1.38;;;;;;;;;;5000633;28;20299;-66
2022/11/06 01:47:28;;;;;;;1.83;1.15;;;;;;;;;;4998622;28;20030;-68
2022/11/06 01:49:56;;;;;;;5.88;1.67;;;;;;;;;;5002616;28;20650;-66
2022/11/06 01:52:22;;;;;;;2.15;1.00;;;;;;;;;;5006386;28;20029;-66
2022/11/06 01:54:49;;;;;;;5.85;2.17;;;;;;;;;;5007230;28;20033;-66
2022/11/06 01:57:14;;;;;;;5.38;2.13;;;;;;;;;;4998241;28;20060;-66
2022/11/06 01:59:41;;;;;;;3.67;1.85;;;;;;;;;;5002756;28;20040;-66
2022/11/06 02:02:07;;;;;;;4.57;1.75;;;;;;;;;;5001726;28;20471;-67
2022/11/06 02:04:36;;;;;;;9.65;2.47;;;;;;;;;;5001370;28;20104;-66
2022/11/06 02:07:01;;;;;;;6.68;2.10;;;;;;;;;;5002742;28;20026;-70
2022/11/06 02:09:28;;;;;;;11.55;3.13;;;;;;;;;;5005376;28;20023;-65
2022/11/06 02:12:08;;;;;;;21.88;2.10;;;;;;;;;;5004747;28;20030;-68
2022/11/06 02:14:34;;;;;;;10.27;2.05;;;;;;;;;;5006141;28;20018;-68
2022/11/06 02:17:25;;;;;;;17.48;2.70;;;;;;;;;;5009178;28;20042;-66
2022/11/06 02:20:04;;;;;;;8.43;2.33;;;;;;;;;;4987835;28;20284;-71
2022/11/06 02:22:32;;;;;;;8.13;3.13;;;;;;;;;;5009610;28;20029;-65
2022/11/06 02:24:57;;;;;;;11.20;2.85;;;;;;;;;;5004003;28;20430;-66
2022/11/06 02:27:23;;;;;;;11.77;3.67;;;;;;;;;;5004271;28;20046;-67
2022/11/06 02:29:51;;;;;;;8.90;2.72;;;;;;;;;;5010564;28;20113;-71
2022/11/06 02:32:20;;;;;;;10.48;3.10;;;;;;;;;;5010034;28;20026;-68
2022/11/06 02:34:46;;;;;;;4.85;1.65;;;;;;;;;;5008610;28;20022;-66
2022/11/06 02:37:14;;;;;;;4.75;1.52;;;;;;;;;;5005900;28;20116;-67
2022/11/06 02:39:40;;;;;;;1.88;1.23;;;;;;;;;;5006180;28;20026;-65
2022/11/06 02:42:07;;;;;;;9.38;2.20;;;;;;;;;;5008008;28;20433;-66
2022/11/06 02:44:35;;;;;;;3.55;1.88;;;;;;;;;;5007461;28;20890;-66
2022/11/06 02:47:01;;;;;;;12.48;2.47;;;;;;;;;;5002400;28;20022;-67
2022/11/06 02:49:32;;;;;;;4.80;1.77;;;;;;;;;;5007114;28;20560;-68
2022/11/06 02:52:00;;;;;;;4.40;2.33;;;;;;;;;;5000618;28;20026;-66
2022/11/06 02:54:26;;;;;;;10.48;2.92;;;;;;;;;;5003801;28;20022;-68
2022/11/06 02:56:56;;;;;;;18.58;3.55;;;;;;;;;;5006984;28;20100;-69
2022/11/06 02:59:46;;;;;;;3.15;1.50;;;;;;;;;;5010125;28;20042;-68
2022/11/06 03:02:15;;;;;;;10.85;1.90;;;;;;;;;;5002645;28;20038;-68
2022/11/06 03:05:06;;;;;;;9.63;2.28;;;;;;;;;;5006308;28;20054;-68
2022/11/06 03:07:43;;;;;;;9.82;3.25;;;;;;;;;;5006238;28;20465;-68
2022/11/06 03:10:08;;;;;;;12.20;2.13;;;;;;;;;;5009306;28;20176;-68
2022/11/06 03:12:57;;;;;;;13.38;1.98;;;;;;;;;;5004699;28;20033;-68
2022/11/06 03:15:35;;;;;;;5.18;1.13;;;;;;;;;;4998689;28;20046;-68
2022/11/06 03:18:10;;;;;;;10.68;2.88;;;;;;;;;;5010290;28;20022;-68
2022/11/06 03:20:50;;;;;;;7.85;2.15;;;;;;;;;;5006986;28;20021;-68
2022/11/06 03:23:38;;;;;;;6.78;1.00;;;;;;;;;;5009069;28;20049;-68
2022/11/06 03:26:13;;;;;;;5.50;2.33;;;;;;;;;;4995838;28;20033;-68
2022/11/06 03:28:41;;;;;;;1.73;0.82;;;;;;;;;;5001974;28;20042;-69
2022/11/06 03:31:16;;;;;;;3.15;1.33;;;;;;;;;;5006053;28;20057;-68
2022/11/06 03:33:41;;;;;;;1.60;1.30;;;;;;;;;;5011158;28;20026;-68
2022/11/06 03:36:08;;;;;;;11.85;2.28;;;;;;;;;;5004393;28;20080;-68
2022/11/06 03:38:39;;;;;;;12.73;1.90;;;;;;;;;;5005967;28;20022;-68
2022/11/06 03:41:08;;;;;;;9.20;2.03;;;;;;;;;;5003218;28;20503;-69
2022/11/06 03:43:35;;;;;;;7.65;1.48;;;;;;;;;;5002989;28;20069;-68
2022/11/06 03:46:01;;;;;;;8.15;2.17;;;;;;;;;;5005719;28;20029;-68
2022/11/06 03:48:32;;;;;;;6.93;1.10;;;;;;;;;;5003446;28;20029;-68
2022/11/06 03:51:04;;;;;;;7.25;1.88;;;;;;;;;;5004922;28;20100;-68
2022/11/06 03:53:34;;;;;;;13.32;1.45;;;;;;;;;;5004967;28;20105;-68
2022/11/06 03:56:04;;;;;;;10.05;1.60;;;;;;;;;;5002830;28;20038;-68
2022/11/06 03:58:31;;;;;;;6.10;2.35;;;;;;;;;;5002763;28;20018;-69
2022/11/06 04:00:58;;;;;;;4.38;1.65;;;;;;;;;;5000594;28;20033;-68
2022/11/06 04:03:49;;;;;;;3.38;1.27;;;;;;;;;;5007605;28;20029;-68
2022/11/06 04:06:21;;;;;;;3.45;1.42;;;;;;;;;;5002867;28;20121;-68
2022/11/06 04:14:16;;;;;;;7.65;2.20;;;;;;;;;;5003425;28;20042;-69
2022/11/06 04:16:44;;;;;;;4.00;1.10;;;;;;;;;;5003426;28;20057;-68
2022/11/06 04:19:17;;;;;;;5.10;1.20;;;;;;;;;;5010139;28;20080;-69
2022/11/06 04:21:47;;;;;;;1.75;1.13;;;;;;;;;;5007770;28;20182;-68
2022/11/06 04:27:25;;;;;;;0.93;0.68;;;;;;;;;;5009325;28;20076;-68
2022/11/06 04:30:05;;;;;;;3.05;1.25;;;;;;;;;;4996924;28;20026;-68
2022/11/06 04:32:31;;;;;;;;;;;;;;;;;;5005127;28;20034;-67
2022/11/06 04:34:59;;;;;;;6.60;1.98;;;;;;;;;;5007441;28;19963;-67
2022/11/06 04:37:26;;;;;;;10.20;2.33;;;;;;;;;;5003577;28;20024;-67
2022/11/06 04:40:07;;;;;;;3.78;1.90;;;;;;;;;;5000396;28;20026;-67
2022/11/06 04:42:37;;;;;;;3.95;1.00;;;;;;;;;;4999058;28;20026;-67
2022/11/06 04:45:05;;;;;;;4.30;1.30;;;;;;;;;;5008083;28;20656;-67
2022/11/06 04:47:31;;;;;;;5.20;1.27;;;;;;;;;;5009566;28;20101;-67
2022/11/06 04:49:57;;;;;;;9.15;1.95;;;;;;;;;;5006035;28;20120;-67
2022/11/06 04:52:25;;;;;;;1.58;0.93;;;;;;;;;;5005121;28;20104;-67
2022/11/06 04:54:51;;;;;;;4.15;1.67;;;;;;;;;;5008376;28;20026;-67
2022/11/06 04:57:16;;;;;;;4.47;1.50;;;;;;;;;;5004662;28;20023;-67
2022/11/06 04:59:42;;;;;;;3.22;0.98;;;;;;;;;;5009415;28;20052;-67
2022/11/06 05:02:07;;;;;;;2.83;0.80;;;;;;;;;;4997378;28;20431;-67
2022/11/06 05:04:32;;;;;;;1.23;0.85;;;;;;;;;;5003294;28;20273;-67
2022/11/06 05:06:57;;;;;;;4.22;1.48;;;;;;;;;;5002976;28;20034;-67
2022/11/06 05:09:23;;;;;;;4.30;1.20;;;;;;;;;;5009194;28;20371;-67
2022/11/06 05:11:48;;;;;;;3.75;0.77;;;;;;;;;;5003867;28;20076;-67
2022/11/06 05:14:13;;;;;;;6.18;2.03;;;;;;;;;;5008362;28;20021;-67
2022/11/06 05:16:38;;;;;;;9.43;1.23;;;;;;;;;;5007790;28;20069;-67
2022/11/06 05:19:04;;;;;;;7.38;2.13;;;;;;;;;;5004750;28;20739;-67
2022/11/06 05:24:12;;;;;;;2.30;1.15;;;;;;;;;;5006151;28;20113;-67
2022/11/06 05:26:38;;;;;;;14.87;1.50;;;;;;;;;;5006072;28;20097;-67
2022/11/06 05:29:03;;;;;;;3.95;1.35;;;;;;;;;;5004996;28;20281;-67
2022/11/06 05:31:28;;;;;;;5.22;0.98;;;;;;;;;;5007392;28;20487;-67
2022/11/06 05:33:53;;;;;;;5.37;1.43;;;;;;;;;;5004590;28;20022;-67
2022/11/06 05:36:18;;;;;;;9.27;1.83;;;;;;;;;;5000936;28;20875;-67
2022/11/06 05:38:44;;;;;;;1.95;0.60;;;;;;;;;;5007915;28;20044;-68
2022/11/06 05:41:09;;;;;;;9.03;1.30;;;;;;;;;;5003961;28;20018;-67
2022/11/06 05:43:34;;;;;;;1.30;1.13;;;;;;;;;;5006616;28;20276;-67
2022/11/06 05:45:59;;;;;;;5.97;1.90;;;;;;;;;;5005444;28;20607;-67
2022/11/06 05:48:25;;;;;;;5.13;0.55;;;;;;;;;;5005545;28;20109;-68
2022/11/06 05:50:50;;;;;;;7.72;1.92;;;;;;;;;;5004926;28;20093;-67
2022/11/06 05:53:15;;;;;;;12.23;1.70;;;;;;;;;;5009313;28;20029;-67
2022/11/06 05:55:41;;;;;;;15.18;1.45;;;;;;;;;;5011563;28;20041;-67
2022/11/06 05:58:06;;;;;;;1.65;1.23;;;;;;;;;;5011813;28;20386;-67
2022/11/06 06:00:31;;;;;;;8.05;1.27;;;;;;;;;;5011533;28;20021;-67
2022/11/06 06:02:56;;;;;;;1.85;0.65;;;;;;;;;;5009474;28;20030;-67
2022/11/06 06:05:21;;;;;;;4.50;1.60;;;;;;;;;;5008511;28;20070;-67
2022/11/06 06:07:46;;;;;;;2.05;0.85;;;;;;;;;;5011240;28;20277;-67
2022/11/06 06:10:12;;;;;;;3.87;1.37;;;;;;;;;;5009412;28;20545;-67
2022/11/06 06:12:38;;;;;;;3.85;1.23;;;;;;;;;;5009587;28;20269;-67
2022/11/06 06:15:04;;;;;;;4.25;2.45;;;;;;;;;;5012282;28;20057;-67
2022/11/06 06:17:29;;;;;;;4.60;1.55;;;;;;;;;;5010743;28;20042;-67
2022/11/06 06:19:54;;;;;;;4.88;1.30;;;;;;;;;;5008967;28;20014;-67
2022/11/06 06:22:19;;;;;;;6.00;1.20;;;;;;;;;;5009973;28;20115;-66
2022/11/06 06:24:44;;;;;;;1.87;0.77;;;;;;;;;;5010316;28;20048;-66
2022/11/06 06:27:09;;;;;;;7.43;1.87;;;;;;;;;;5008250;28;20688;-67
2022/11/06 06:29:35;;;;;;;2.90;1.20;;;;;;;;;;5012004;28;20338;-66
2022/11/06 06:32:00;;;;;;;7.20;1.27;;;;;;;;;;5009882;28;20308;-66
2022/11/06 06:34:25;;;;;;;29.75;2.35;;;;;;;;;;5011777;28;20474;-67
2022/11/06 06:36:51;;;;;;;8.57;1.30;;;;;;;;;;5007818;28;20076;-66
2022/11/06 06:39:16;;;;;;;1.60;0.82;;;;;;;;;;5011402;28;20312;-66
2022/11/06 06:41:41;;;;;;;4.40;1.48;;;;;;;;;;5008507;28;20053;-66
2022/11/06 06:44:06;;;;;;;8.33;1.40;;;;;;;;;;5010213;28;20022;-66
2022/11/06 06:46:31;;;;;;;6.60;1.13;;;;;;;;;;5006338;28;20339;-66
2022/11/06 06:48:57;;;;;;;4.43;1.02;;;;;;;;;;5009765;28;20285;-66
2022/11/06 06:51:22;;;;;;;3.60;1.10;;;;;;;;;;5009413;28;20111;-66
2022/11/06 06:53:47;;;;;;;8.82;2.47;;;;;;;;;;5007150;28;20312;-66
2022/11/06 06:56:12;;;;;;;3.73;1.17;;;;;;;;;;5011495;28;20033;-67
2022/11/06 06:58:38;;;;;;;4.78;0.82;;;;;;;;;;5006902;28;20307;-67
2022/11/06 07:01:04;;;;;;;3.83;1.30;;;;;;;;;;5007573;28;20030;-67
2022/11/06 07:03:29;;;;;;;4.90;1.13;;;;;;;;;;5010274;28;20085;-66
2022/11/06 07:05:55;;;;;;;3.90;0.95;;;;;;;;;;5009363;28;20568;-66
2022/11/06 07:08:21;;;;;;;4.82;1.92;;;;;;;;;;5006768;28;20025;-67
2022/11/06 07:10:46;;;;;;;8.15;0.88;;;;;;;;;;5007702;28;20394;-67
2022/11/06 07:13:11;;;;;;;4.63;1.07;;;;;;;;;;5004361;28;20026;-67
2022/11/06 07:15:36;;;;;;;6.63;1.10;;;;;;;;;;5008334;28;20354;-67
2022/11/06 07:18:02;;;;;;;1.33;0.50;;;;;;;;;;5007357;28;20034;-67
2022/11/06 07:20:27;;;;;;;7.38;1.80;;;;;;;;;;5007441;28;20269;-67
2022/11/06 07:22:53;;;;;;;6.70;1.95;;;;;;;;;;5002160;28;20027;-67
2022/11/06 07:25:18;;;;;;;4.97;1.33;;;;;;;;;;5010327;28;20030;-67
2022/11/06 07:27:43;;;;;;;12.47;1.27;;;;;;;;;;5007073;28;20373;-67
2022/11/06 07:30:08;;;;;;;7.00;1.07;;;;;;;;;;5010939;28;20284;-67
2022/11/06 07:32:33;;;;;;;4.07;1.20;;;;;;;;;;5010390;28;20281;-67
2022/11/06 07:34:59;;;;;;;9.27;2.97;;;;;;;;;;4996770;28;20054;-67
2022/11/06 07:37:24;;;;;;;5.43;1.50;;;;;;;;;;5005191;28;20684;-67
2022/11/06 07:39:49;;;;;;;10.82;1.70;;;;;;;;;;5009005;28;20261;-67
2022/11/06 07:42:14;;;;;;;10.15;1.55;;;;;;;;;;5012123;28;20367;-68
2022/11/06 07:44:39;;;;;;;9.40;1.20;;;;;;;;;;5008394;28;20055;-67
2022/11/06 07:47:05;;;;;;;3.00;1.10;;;;;;;;;;5009812;28;20343;-68
2022/11/06 07:49:30;;;;;;;1.97;0.80;;;;;;;;;;5002380;28;20269;-68
2022/11/06 07:51:55;;;;;;;2.30;1.13;;;;;;;;;;5007142;28;20280;-68
2022/11/06 07:54:20;;;;;;;1.50;0.85;;;;;;;;;;5009260;28;20117;-68
2022/11/06 07:56:45;;;;;;;11.57;1.73;;;;;;;;;;5008793;28;20038;-67
2022/11/06 07:59:11;;;;;;;5.33;1.23;;;;;;;;;;5004684;28;20411;-66
2022/11/06 08:01:36;;;;;;;2.93;0.80;;;;;;;;;;5004673;28;20284;-66
2022/11/06 08:04:01;;;;;;;5.93;1.03;;;;;;;;;;5004362;28;20313;-66
2022/11/06 08:06:26;;;;;;;4.47;1.00;;;;;;;;;;5005341;28;20273;-66
2022/11/06 08:08:51;;;;;;;11.17;1.10;;;;;;;;;;5006501;28;20022;-67
2022/11/06 08:11:16;;;;;;;6.50;1.60;;;;;;;;;;5002647;28;20285;-66
2022/11/06 08:13:42;;;;;;;3.43;0.87;;;;;;;;;;5005640;28;20630;-67
2022/11/06 08:16:09;;;;;;;8.55;1.25;;;;;;;;;;5004559;28;20258;-67
2022/11/06 08:18:34;;;;;;;11.60;1.42;;;;;;;;;;5008144;28;20018;-67
2022/11/06 08:21:00;;;;;;;6.95;1.10;;;;;;;;;;5009632;28;20029;-67
2022/11/06 08:23:25;;;;;;;5.38;1.55;;;;;;;;;;5001943;28;20676;-67
2022/11/06 08:25:57;;;;;;;6.80;1.83;;;;;;;;;;5000263;28;20149;-67
2022/11/06 08:28:23;;;;;;;2.55;1.20;;;;;;;;;;4999879;28;20326;-67
2022/11/06 08:30:48;;;;;;;3.33;0.70;;;;;;;;;;4999011;28;20356;-67
2022/11/06 08:33:13;;;;;;;3.40;1.10;;;;;;;;;;5004517;28;20097;-67
2022/11/06 08:35:38;;;;;;;7.83;2.13;;;;;;;;;;5010782;28;20263;-67
2022/11/06 08:38:04;;;;;;;4.70;2.03;;;;;;;;;;5010648;28;20273;-67
2022/11/06 08:40:29;;;;;;;4.53;1.55;;;;;;;;;;5006664;28;20026;-67
2022/11/06 08:42:58;;;;;;;8.90;1.98;;;;;;;;;;5006519;28;20022;-67
2022/11/06 08:45:23;;;;;;;3.47;1.70;;;;;;;;;;5004409;28;20479;-67
2022/11/06 08:47:48;;;;;;;5.80;0.67;;;;;;;;;;5011347;28;20025;-67
2022/11/06 08:50:13;;;;;;;9.70;2.00;;;;;;;;;;5009324;28;20307;-68
2022/11/06 08:52:38;;;;;;;7.80;0.87;;;;;;;;;;4995528;28;20257;-68
2022/11/06 08:55:04;;;;;;;2.67;0.63;;;;;;;;;;5002388;28;20273;-68
2022/11/06 08:57:29;;;;;;;7.22;1.77;;;;;;;;;;5002645;28;20269;-68
2022/11/06 08:59:54;;;;;;;3.00;1.30;;;;;;;;;;5000664;28;20141;-68
2022/11/06 09:02:20;;;;;;;12.93;2.47;;;;;;;;;;4996672;28;20261;-68
2022/11/06 09:04:45;;;;;;;6.17;1.60;;;;;;;;;;5004264;28;20666;-68
2022/11/06 09:07:10;;;;;;;2.90;1.23;;;;;;;;;;4997803;28;20274;-67
2022/11/06 09:09:35;;;;;;;10.23;1.52;;;;;;;;;;5003356;28;20026;-68
2022/11/06 09:12:01;;;;;;;3.73;1.23;;;;;;;;;;5006291;28;20022;-68
2022/11/06 09:14:26;;;;;;;3.35;0.82;;;;;;;;;;4996275;28;20403;-69
2022/11/06 09:16:51;;;;;;;4.03;0.60;;;;;;;;;;5006814;28;20477;-68
2022/11/06 09:19:17;;;;;;;4.93;2.13;;;;;;;;;;5010412;28;20018;-68
2022/11/06 09:21:42;;;;;;;6.72;1.67;;;;;;;;;;5006752;28;20701;-68
2022/11/06 09:24:07;;;;;;;37.43;2.23;;;;;;;;;;5009366;28;20018;-69
2022/11/06 09:26:32;;;;;;;10.63;1.40;;;;;;;;;;5004005;28;20335;-69
2022/11/06 09:28:57;;;;;;;7.77;1.20;;;;;;;;;;5004100;28;20758;-70
2022/11/06 09:31:22;;;;;;;6.67;1.37;;;;;;;;;;5012660;28;20283;-69
2022/11/06 09:33:48;;;;;;;5.27;1.33;;;;;;;;;;5012229;28;20746;-69
2022/11/06 09:36:13;;;;;;;2.53;1.10;;;;;;;;;;5012336;28;20276;-68
2022/11/06 09:38:38;;;;;;;5.47;1.03;;;;;;;;;;5009074;28;20611;-69
2022/11/06 09:41:03;;;;;;;3.10;0.98;;;;;;;;;;5013788;28;20265;-69
2022/11/06 09:43:31;;;;;;;7.10;1.48;;;;;;;;;;5005076;28;20370;-69
2022/11/06 09:46:03;;;;;;;8.80;1.55;;;;;;;;;;4999518;28;20064;-68
2022/11/06 09:48:31;;;;;;;5.07;1.55;;;;;;;;;;5009824;28;20157;-69
2022/11/06 09:51:02;;;;;;;10.23;1.73;;;;;;;;;;5012249;28;20113;-69
2022/11/06 09:53:32;;;;;;;15.73;1.98;;;;;;;;;;5007880;28;20068;-69
2022/11/06 09:55:59;;;;;;;4.90;1.55;;;;;;;;;;5006314;28;20014;-68
2022/11/06 09:58:27;;;;;;;2.25;1.10;;;;;;;;;;5006437;28;20033;-69
2022/11/06 10:00:53;;;;;;;1.15;0.70;;;;;;;;;;5011726;28;20026;-69
2022/11/06 10:03:37;;;;;;;17.17;1.98;;;;;;;;;;5011436;28;20418;-68
2022/11/06 10:06:02;;;;;;;4.05;1.33;;;;;;;;;;5006382;28;20029;-68
2022/11/06 10:08:28;;;;;;;2.83;1.08;;;;;;;;;;5011074;28;20030;-69
2022/11/06 10:10:57;;;;;;;10.55;1.70;;;;;;;;;;5007726;28;20036;-71
2022/11/06 10:13:22;;;;;;;6.18;0.98;;;;;;;;;;5010468;28;20026;-67
2022/11/06 10:15:59;;;;;;;5.35;1.98;;;;;;;;;;5005447;28;20478;-70
2022/11/06 10:18:33;;;;;;;8.05;1.58;;;;;;;;;;5003586;28;20498;-69
2022/11/06 10:21:17;;;;;;;9.00;2.05;;;;;;;;;;5011039;28;20021;-70
2022/11/06 10:23:51;;;;;;;3.40;1.52;;;;;;;;;;5007718;28;20121;-68
2022/11/06 10:26:24;;;;;;;2.78;1.02;;;;;;;;;;5007383;28;20025;-66
2022/11/06 10:29:08;;;;;;;6.10;1.70;;;;;;;;;;5009897;28;20030;-70
2022/11/06 10:31:45;;;;;;;7.82;2.40;;;;;;;;;;5020189;23;20029;-65
2022/11/06 10:34:33;;;;;;;4.35;1.48;;;;;;;;;;5005215;28;20496;-66
2022/11/06 10:37:04;;;;;;;7.72;2.13;;;;;;;;;;5002612;28;20057;-63
2022/11/06 10:39:34;;;;;;;2.05;1.08;;;;;;;;;;5009491;28;20028;-63
2022/11/06 10:42:05;;;;;;;6.47;2.08;;;;;;;;;;5003288;28;20018;-64
2022/11/06 10:44:37;;;;;;;6.80;1.42;;;;;;;;;;4989218;28;20026;-64
2022/11/06 10:47:17;;;;;;;4.90;1.80;;;;;;;;;;4990761;28;20022;-64
2022/11/06 10:49:45;;;;;;;7.75;1.85;;;;;;;;;;4990385;28;20426;-64
2022/11/06 10:52:25;;;;;;;5.15;1.52;;;;;;;;;;4992549;28;20026;-65
2022/11/06 10:54:53;;;;;;;3.13;1.50;;;;;;;;;;4994084;28;20025;-64
2022/11/06 10:57:18;;;;;;;8.63;2.38;;;;;;;;;;4992699;28;20076;-64
2022/11/06 10:59:43;;;;;;;7.27;2.03;;;;;;;;;;4989151;28;20026;-66
2022/11/06 11:02:19;;;;;;;5.90;1.95;;;;;;;;;;4984127;28;20269;-65
2022/11/06 11:04:44;;;;;;;5.60;1.98;;;;;;;;;;4989833;28;20022;-65
2022/11/06 11:07:13;;;;;;;4.77;2.10;;;;;;;;;;4988946;28;20018;-65
2022/11/06 11:09:39;;;;;;;9.02;2.47;;;;;;;;;;4988682;28;20335;-65
2022/11/06 11:12:04;;;;;;;9.70;1.92;;;;;;;;;;4992696;28;20018;-65
2022/11/06 11:14:30;;;;;;;12.95;2.22;;;;;;;;;;4991474;28;20019;-65
2022/11/06 11:16:58;;;;;;;6.25;2.20;;;;;;;;;;4992535;28;20076;-66
2022/11/06 11:19:25;;;;;;;12.90;2.05;;;;;;;;;;4992541;28;20418;-65
2022/11/06 11:21:51;;;;;;;24.88;2.45;;;;;;;;;;4991380;28;20011;-65
2022/11/06 11:24:16;;;;;;;5.75;2.08;;;;;;;;;;4987105;28;20525;-65
2022/11/06 11:26:43;;;;;;;7.47;2.23;;;;;;;;;;4991894;28;20019;-64
2022/11/06 11:29:14;;;;;;;4.47;1.48;;;;;;;;;;4993480;28;20628;-65
2022/11/06 11:31:39;;;;;;;10.30;2.55;;;;;;;;;;4990285;28;20073;-65
2022/11/06 11:34:13;;;;;;;4.20;1.65;;;;;;;;;;4991876;28;20022;-66
2022/11/06 11:36:49;;;;;;;4.88;2.15;;;;;;;;;;4992145;28;20034;-65
2022/11/06 11:39:15;;;;;;;5.40;1.98;;;;;;;;;;5005598;28;20394;-65
2022/11/06 11:41:40;;;;;;;4.45;1.48;;;;;;;;;;4991018;28;20562;-66
2022/11/06 11:44:13;;;;;;;3.37;1.30;;;;;;;;;;4990840;28;20100;-66
2022/11/06 11:46:50;;;;;;;6.38;2.58;;;;;;;;;;4991087;28;20262;-64
2022/11/06 11:49:33;;;;;;;5.03;1.73;;;;;;;;;;4991045;28;20018;-64
2022/11/06 11:52:03;;;;;;;3.70;1.52;;;;;;;;;;4985883;28;20399;-64
2022/11/06 11:54:33;;;;;;;5.43;2.17;;;;;;;;;;4986260;28;20395;-64
2022/11/06 11:57:00;;;;;;;3.47;1.88;;;;;;;;;;4987787;28;20022;-65
2022/11/06 11:59:27;;;;;;;8.57;2.30;;;;;;;;;;4991375;28;20403;-64
2022/11/06 12:01:53;;;;;;;5.85;2.03;;;;;;;;;;4988214;28;20030;-64
2022/11/06 12:04:27;;;;;;;13.98;2.60;;;;;;;;;;4990646;28;20029;-64
2022/11/06 12:06:54;;;;;;;6.95;1.27;;;;;;;;;;4985328;28;20018;-64
2022/11/06 12:09:19;;;;;;;8.23;1.58;;;;;;;;;;4989162;28;20026;-65
2022/11/06 12:11:45;;;;;;;2.75;0.85;;;;;;;;;;4988886;28;20030;-64
2022/11/06 12:14:29;;;;;;;3.20;1.35;;;;;;;;;;4988673;28;20026;-66
2022/11/06 12:17:03;;;;;;;3.35;1.30;;;;;;;;;;4987293;28;20019;-65
2022/11/06 12:19:30;;;;;;;4.43;1.20;;;;;;;;;;4987980;28;20041;-65
2022/11/06 12:21:57;;;;;;;6.47;1.05;;;;;;;;;;4985206;28;20505;-64
2022/11/06 12:24:46;;;;;;;9.20;2.00;;;;;;;;;;4990115;28;20022;-64
2022/11/06 12:27:14;;;;;;;4.65;2.45;;;;;;;;;;4986391;28;20042;-64
2022/11/06 12:29:42;;;;;;;5.40;1.63;;;;;;;;;;4989273;28;20475;-64
2022/11/06 12:32:20;;;;;;;2.20;1.30;;;;;;;;;;4985438;28;20030;-64
2022/11/06 12:34:50;;;;;;;2.95;1.52;;;;;;;;;;4987095;28;20037;-64
2022/11/06 12:37:34;;;;;;;4.93;1.23;;;;;;;;;;4991114;28;20018;-64
2022/11/06 12:40:03;;;;;;;3.67;1.15;;;;;;;;;;4984688;28;20172;-64
2022/11/06 12:42:30;;;;;;;2.50;1.73;;;;;;;;;;4986296;28;20022;-64
2022/11/06 12:44:55;;;;;;;9.25;1.80;;;;;;;;;;4987797;28;20081;-64
2022/11/06 12:47:31;;;;;;;8.53;1.70;;;;;;;;;;4987552;28;20523;-64
2022/11/06 12:50:11;;;;;;;3.78;1.15;;;;;;;;;;5002976;28;20484;-64
2022/11/06 12:52:39;;;;;;;2.97;1.20;;;;;;;;;;4987919;28;20026;-64
2022/11/06 12:55:04;;;;;;;5.40;1.20;;;;;;;;;;4981816;28;20065;-64
2022/11/06 12:57:40;;;;;;;2.40;1.37;;;;;;;;;;4987348;28;20019;-64
2022/11/06 13:00:12;;;;;;;2.35;1.20;;;;;;;;;;4990589;28;20324;-64
2022/11/06 13:02:37;;;;;;;2.40;0.85;;;;;;;;;;4986635;28;20038;-64
2022/11/06 13:05:02;;;;;;;2.35;0.77;;;;;;;;;;4987597;28;20030;-64
2022/11/06 13:07:40;;;;;;;3.60;1.00;;;;;;;;;;4982306;28;20595;-64
2022/11/06 13:10:16;;;;;;;2.22;0.88;;;;;;;;;;4990043;28;20254;-64
2022/11/06 13:12:48;;;;;;;3.72;0.93;;;;;;;;;;4983708;28;20607;-65
2022/11/06 13:15:31;;;;;;;3.08;0.95;;;;;;;;;;4982208;28;20054;-65
2022/11/06 13:17:59;;;;;;;4.72;1.50;;;;;;;;;;4986442;28;20399;-65
2022/11/06 13:20:30;;;;;;;8.35;1.55;;;;;;;;;;4987424;28;20026;-65
2022/11/06 13:23:02;;;;;;;10.40;1.27;;;;;;;;;;4985066;28;20021;-65
2022/11/06 13:25:32;;;;;;;0.80;0.57;;;;;;;;;;4983545;28;20105;-65
2022/11/06 13:28:29;;;;;;;4.70;1.08;;;;;;;;;;4983868;28;20026;-65
2022/11/06 13:30:55;;;;;;;2.58;1.00;;;;;;;;;;4971595;28;20153;-64
2022/11/06 13:33:20;;;;;;;2.97;0.93;;;;;;;;;;4981412;28;20071;-65
2022/11/06 13:35:46;;;;;;;2.25;0.93;;;;;;;;;;4984704;28;20030;-64
2022/11/06 13:38:22;;;;;;;3.30;1.05;;;;;;;;;;4987011;28;20038;-66
2022/11/06 13:40:51;;;;;;;3.78;0.65;;;;;;;;;;4984283;28;20574;-66
2022/11/06 13:43:37;;;;;;;1.70;0.80;;;;;;;;;;4988039;28;20066;-65
2022/11/06 13:46:25;;;;;;;3.60;0.95;;;;;;;;;;4985507;28;20026;-64
2022/11/06 13:48:51;;;;;;;3.13;0.80;;;;;;;;;;4984463;28;20041;-67
2022/11/06 13:51:35;;;;;;;3.10;1.37;;;;;;;;;;4988608;28;20374;-65
2022/11/06 13:54:18;;;;;;;3.13;0.43;;;;;;;;;;4988501;28;20274;-64
2022/11/06 13:56:52;;;;;;;1.17;0.80;;;;;;;;;;4989699;28;20105;-64
2022/11/06 13:59:20;;;;;;;3.83;1.30;;;;;;;;;;4985490;28;20027;-64
2022/11/06 14:02:03;;;;;;;3.72;0.90;;;;;;;;;;4985595;28;20072;-65
2022/11/06 14:04:37;;;;;;;10.73;1.00;;;;;;;;;;4984891;28;20019;-65
2022/11/06 14:07:04;;;;;;;7.50;1.17;;;;;;;;;;4988264;28;20479;-65
2022/11/06 14:09:30;;;;;;;1.40;0.82;;;;;;;;;;4988114;28;20390;-64
2022/11/06 14:12:00;;;;;;;1.35;1.00;;;;;;;;;;4989433;28;20467;-64
2022/11/06 14:14:27;;;;;;;4.70;0.80;;;;;;;;;;4991144;28;20105;-66
2022/11/06 14:17:10;;;;;;;2.22;1.15;;;;;;;;;;4990786;28;20281;-65
2022/11/06 14:19:36;;;;;;;1.45;0.43;;;;;;;;;;4987976;28;20080;-64
2022/11/06 14:22:07;;;;;;;2.72;1.00;;;;;;;;;;4989712;28;20022;-64
2022/11/06 14:24:36;;;;;;;1.33;0.52;;;;;;;;;;4988824;28;20426;-65
2022/11/06 14:27:02;;;;;;;3.05;1.02;;;;;;;;;;4993203;28;20068;-65
2022/11/06 14:29:27;;;;;;;4.00;0.95;;;;;;;;;;4991614;28;20538;-65
2022/11/06 14:32:31;;;;;;;1.83;0.40;;;;;;;;;;4989738;28;20109;-65
2022/11/06 14:34:57;;;;;;;1.70;0.70;;;;;;;;;;4991794;28;20793;-65
2022/11/06 14:37:25;;;;;;;5.80;1.58;;;;;;;;;;4992131;28;20312;-65
2022/11/06 14:39:50;;;;;;;2.50;0.90;;;;;;;;;;4990755;28;20029;-65
2022/11/06 14:42:17;;;;;;;0.68;0.38;;;;;;;;;;4990351;28;20018;-65
2022/11/06 14:44:45;;;;;;;2.50;0.80;;;;;;;;;;4992206;28;20101;-65
2022/11/06 14:47:20;;;;;;;0.85;0.50;;;;;;;;;;4989524;28;21818;-65
2022/11/06 14:49:48;;;;;;;0.60;0.40;;;;;;;;;;4988907;28;20414;-65
2022/11/06 14:52:14;;;;;;;2.92;0.73;;;;;;;;;;4993365;28;20030;-65
2022/11/06 14:54:48;;;;;;;11.20;2.58;;;;;;;;;;4988465;28;20118;-65
2022/11/06 14:57:15;;;;;;;13.32;4.38;;;;;;;;;;4987845;28;20018;-66
2022/11/06 14:59:40;;;;;;;20.75;8.43;;;;;;;;;;4986990;28;20022;-65